Time;durP1;ratioP1;P1;durP2;ratioP2;P2;SDS_P1;SDS_P2;PMS_P1;PMS_P2;Temp;Humidity;BMP_temperature;BMP_pressure;BME280_temperature;BME280_humidity;BME280_pressure;Samples;Min_cycle;Max_cycle;Signal;HPM_P1;HPM_P2
2022/10/10 00:01:31;;;;;;;1.67;0.73;;;19.80;78.10;;;;;;5088992;28;20185;-72
2022/10/10 00:03:57;;;;;;;4.20;0.70;;;19.80;78.10;;;;;;5093926;28;20023;-72
2022/10/10 00:06:22;;;;;;;1.70;0.68;;;19.70;78.10;;;;;;5093843;28;20111;-72
2022/10/10 00:08:48;;;;;;;1.45;0.82;;;19.80;78.20;;;;;;5103018;28;20011;-72
2022/10/10 00:11:14;;;;;;;1.23;0.60;;;19.80;78.10;;;;;;5096989;28;20446;-73
2022/10/10 00:13:40;;;;;;;1.42;0.80;;;19.80;78.20;;;;;;5115284;28;20485;-72
2022/10/10 00:16:06;;;;;;;1.55;0.50;;;19.80;78.20;;;;;;5114139;28;20039;-72
2022/10/10 00:18:32;;;;;;;0.73;0.70;;;19.70;78.10;;;;;;5113994;28;20024;-72
2022/10/10 00:20:57;;;;;;;1.42;0.60;;;19.70;78.10;;;;;;5114205;28;20068;-72
2022/10/10 00:23:23;;;;;;;1.05;0.68;;;19.80;78.20;;;;;;5113975;28;20529;-73
2022/10/10 00:25:49;;;;;;;1.52;0.90;;;19.80;78.10;;;;;;5113585;28;20558;-72
2022/10/10 00:28:14;;;;;;;3.47;0.80;;;19.80;78.20;;;;;;5114052;28;20054;-72
2022/10/10 00:30:40;;;;;;;1.40;0.60;;;19.70;78.10;;;;;;5113735;28;20023;-72
2022/10/10 00:33:06;;;;;;;1.08;0.60;;;19.70;78.20;;;;;;5114991;28;20076;-72
2022/10/10 00:35:31;;;;;;;0.68;0.65;;;19.70;78.10;;;;;;5115031;28;20031;-72
2022/10/10 00:37:57;;;;;;;1.30;0.70;;;19.70;78.10;;;;;;5114940;28;20023;-72
2022/10/10 00:40:23;;;;;;;3.33;0.80;;;19.70;78.10;;;;;;5114555;28;20023;-72
2022/10/10 00:42:48;;;;;;;3.42;0.68;;;19.70;78.20;;;;;;5096761;28;20024;-72
2022/10/10 00:45:34;;;;;;;2.63;0.80;;;19.70;78.20;;;;;;5114737;28;20023;-73
2022/10/10 00:48:18;;;;;;;1.35;0.75;;;19.70;78.20;;;;;;5103813;28;20081;-72
2022/10/10 00:50:54;;;;;;;2.80;0.75;;;19.70;78.20;;;;;;5113384;28;20016;-72
2022/10/10 00:53:22;;;;;;;1.15;0.60;;;19.70;78.30;;;;;;5113342;28;20046;-72
2022/10/10 00:55:48;;;;;;;0.82;0.63;;;19.70;78.30;;;;;;5113197;28;20016;-72
2022/10/10 00:58:13;;;;;;;2.05;0.80;;;19.70;78.30;;;;;;5113468;28;20016;-72
2022/10/10 01:00:39;;;;;;;1.38;0.57;;;19.70;78.30;;;;;;5110795;28;20482;-72
2022/10/10 01:03:05;;;;;;;1.70;0.77;;;19.60;78.20;;;;;;5094072;28;20027;-72
2022/10/10 01:05:31;;;;;;;2.53;1.13;;;19.70;78.30;;;;;;5093816;28;20043;-72
2022/10/10 01:07:56;;;;;;;3.70;0.70;;;19.70;78.40;;;;;;5095477;28;20020;-72
2022/10/10 01:10:23;;;;;;;2.40;0.70;;;19.70;78.40;;;;;;5112926;28;20024;-72
2022/10/10 01:13:27;;;;;;;2.33;0.85;;;19.60;78.30;;;;;;5096418;28;20024;-72
2022/10/10 01:16:13;;;;;;;3.58;0.68;;;19.60;78.30;;;;;;5097833;28;20032;-72
2022/10/10 01:18:55;;;;;;;3.60;0.73;;;19.60;78.30;;;;;;5112869;28;20024;-72
2022/10/10 01:21:55;;;;;;;2.10;0.80;;;19.60;78.30;;;;;;5096350;28;20023;-72
2022/10/10 01:24:56;;;;;;;2.70;0.80;;;19.60;78.40;;;;;;5112757;28;20027;-72
2022/10/10 01:27:37;;;;;;;3.67;0.90;;;19.60;78.40;;;;;;5050954;28;20025;-72
2022/10/10 01:30:13;;;;;;;4.53;1.00;;;19.60;78.40;;;;;;5034694;28;20112;-72
2022/10/10 01:32:51;;;;;;;2.58;0.90;;;19.60;78.40;;;;;;5034176;28;20422;-72
2022/10/10 01:35:40;;;;;;;1.00;0.88;;;19.60;78.50;;;;;;5035878;28;20041;-73
2022/10/10 01:38:17;;;;;;;1.23;0.75;;;19.60;78.50;;;;;;5040433;28;20037;-73
2022/10/10 01:41:12;;;;;;;2.25;1.00;;;19.60;78.50;;;;;;5050793;28;20039;-73
2022/10/10 01:43:38;;;;;;;2.75;1.05;;;19.60;78.50;;;;;;5034404;28;20029;-73
2022/10/10 01:46:30;;;;;;;1.45;0.80;;;19.60;78.70;;;;;;5034286;28;20041;-73
2022/10/10 01:48:56;;;;;;;2.30;0.82;;;19.60;78.50;;;;;;5031294;28;20040;-73
2022/10/10 01:51:53;;;;;;;1.33;0.75;;;19.60;78.60;;;;;;5034190;28;20108;-73
2022/10/10 01:54:25;;;;;;;1.88;0.70;;;19.60;78.70;;;;;;5034222;28;20140;-73
2022/10/10 01:57:05;;;;;;;;;;;19.60;78.70;;;;;;5034653;28;20039;-73
2022/10/10 01:59:52;;;;;;;1.90;0.90;;;19.50;78.50;;;;;;5034139;28;20359;-73
2022/10/10 02:02:57;;;;;;;1.80;0.73;;;19.50;78.70;;;;;;5091097;28;20118;-73
2022/10/10 02:05:40;;;;;;;3.63;0.80;;;19.50;78.60;;;;;;5050483;28;20136;-73
2022/10/10 02:08:07;;;;;;;;;;;19.50;78.70;;;;;;5036852;28;20036;-73
2022/10/10 02:10:35;;;;;;;3.17;1.10;;;19.50;78.70;;;;;;5070367;28;19912;-73
2022/10/10 02:13:01;;;;;;;1.65;0.90;;;19.50;78.80;;;;;;5037323;28;20033;-73
2022/10/10 02:15:29;;;;;;;1.65;0.90;;;19.50;78.70;;;;;;5037250;28;20028;-73
2022/10/10 02:17:55;;;;;;;1.15;0.95;;;19.50;78.70;;;;;;5037114;28;20050;-72
2022/10/10 02:20:22;;;;;;;3.10;1.00;;;19.50;78.70;;;;;;5037103;28;20028;-72
2022/10/10 02:22:49;;;;;;;1.27;0.77;;;19.50;78.70;;;;;;5036988;28;20020;-72
2022/10/10 02:25:14;;;;;;;2.33;0.80;;;19.50;78.70;;;;;;5070289;28;20392;-72
2022/10/10 02:27:55;;;;;;;1.70;0.90;;;19.50;78.80;;;;;;5053523;28;20031;-73
2022/10/10 02:30:21;;;;;;;2.47;1.00;;;19.50;78.70;;;;;;5054154;28;20116;-72
2022/10/10 02:32:50;;;;;;;1.65;0.88;;;19.50;78.90;;;;;;5070097;28;20092;-73
2022/10/10 02:35:22;;;;;;;6.43;1.20;;;19.50;79.00;;;;;;5053610;28;20028;-73
2022/10/10 02:37:48;;;;;;;1.45;0.80;;;19.50;79.00;;;;;;5036835;28;20111;-72
2022/10/10 02:40:15;;;;;;;4.15;0.90;;;19.50;78.90;;;;;;5088038;28;20118;-72
2022/10/10 02:42:41;;;;;;;1.17;0.93;;;19.50;79.00;;;;;;5111277;28;20489;-72
2022/10/10 02:45:07;;;;;;;5.75;1.00;;;19.50;79.00;;;;;;5111727;28;20024;-73
2022/10/10 02:47:32;;;;;;;1.13;0.80;;;19.50;79.00;;;;;;5112780;28;20024;-72
2022/10/10 02:49:58;;;;;;;4.43;0.90;;;19.50;79.00;;;;;;5111434;28;20160;-73
2022/10/10 02:52:24;;;;;;;2.45;0.90;;;19.50;79.00;;;;;;5112371;28;20058;-73
2022/10/10 02:54:49;;;;;;;2.58;0.98;;;19.50;79.00;;;;;;5112686;28;20024;-72
2022/10/10 02:57:15;;;;;;;1.45;0.77;;;19.50;79.00;;;;;;5112683;28;20024;-72
2022/10/10 02:59:41;;;;;;;2.53;0.80;;;19.50;79.10;;;;;;5112682;28;20031;-72
2022/10/10 03:02:07;;;;;;;1.63;0.90;;;19.50;79.10;;;;;;5098972;28;20043;-72
2022/10/10 03:04:34;;;;;;;1.77;1.08;;;19.50;79.10;;;;;;5092090;28;20020;-72
2022/10/10 03:06:59;;;;;;;2.20;1.17;;;19.50;79.20;;;;;;5090900;28;20016;-72
2022/10/10 03:09:25;;;;;;;2.10;0.80;;;19.50;79.20;;;;;;5104975;28;20028;-72
2022/10/10 03:11:51;;;;;;;0.80;0.80;;;19.50;79.20;;;;;;5112388;28;20085;-72
2022/10/10 03:14:16;;;;;;;1.25;1.02;;;19.40;79.10;;;;;;5112597;28;20055;-73
2022/10/10 03:16:42;;;;;;;2.08;0.70;;;19.40;79.10;;;;;;5112294;28;20055;-72
2022/10/10 03:19:07;;;;;;;1.35;0.90;;;19.50;79.20;;;;;;5112549;28;20129;-72
2022/10/10 03:21:34;;;;;;;2.45;1.00;;;19.40;79.20;;;;;;5112083;28;20049;-72
2022/10/10 03:24:00;;;;;;;3.17;1.17;;;19.40;79.20;;;;;;5112011;28;20554;-72
2022/10/10 03:26:25;;;;;;;0.85;0.75;;;19.40;79.20;;;;;;5115288;28;20066;-72
2022/10/10 03:28:51;;;;;;;2.25;0.80;;;19.40;79.40;;;;;;5116099;28;20481;-73
2022/10/10 03:31:17;;;;;;;2.50;0.95;;;19.40;79.30;;;;;;5115102;28;20102;-73
2022/10/10 03:33:42;;;;;;;1.52;0.90;;;19.50;79.30;;;;;;5114947;28;20032;-73
2022/10/10 03:36:09;;;;;;;1.58;0.98;;;19.40;79.30;;;;;;5116130;28;20478;-73
2022/10/10 03:38:34;;;;;;;1.33;0.90;;;19.40;79.30;;;;;;5114630;28;20023;-72
2022/10/10 03:41:00;;;;;;;2.00;0.93;;;19.40;79.40;;;;;;5115980;28;20389;-72
2022/10/10 03:43:26;;;;;;;0.90;0.80;;;19.40;79.50;;;;;;5116172;28;20023;-72
2022/10/10 03:45:51;;;;;;;2.30;1.10;;;19.40;79.40;;;;;;5115778;28;20020;-72
2022/10/10 03:48:17;;;;;;;1.60;0.70;;;19.40;79.50;;;;;;5116055;28;20026;-72
2022/10/10 03:50:43;;;;;;;3.67;1.15;;;19.40;79.50;;;;;;5114498;28;20089;-72
2022/10/10 03:53:08;;;;;;;2.15;0.93;;;19.40;79.50;;;;;;5115525;28;20043;-72
2022/10/10 03:55:34;;;;;;;4.20;1.45;;;19.40;79.60;;;;;;5114770;28;20103;-72
2022/10/10 03:58:00;;;;;;;0.75;0.73;;;19.40;79.60;;;;;;5115828;28;20023;-72
2022/10/10 04:00:25;;;;;;;1.60;0.90;;;19.50;79.60;;;;;;5114574;28;20023;-73
2022/10/10 04:02:52;;;;;;;1.13;0.98;;;19.40;79.60;;;;;;5094308;28;20024;-72
2022/10/10 04:05:18;;;;;;;1.52;0.90;;;19.40;79.60;;;;;;5095083;28;20489;-72
2022/10/10 04:07:43;;;;;;;2.97;1.20;;;19.40;79.50;;;;;;5095059;28;20032;-73
2022/10/10 04:10:09;;;;;;;1.30;0.90;;;19.40;79.60;;;;;;5115358;28;20397;-73
2022/10/10 04:12:35;;;;;;;1.85;1.13;;;19.40;79.70;;;;;;5115416;28;20034;-72
2022/10/10 04:15:01;;;;;;;1.67;0.95;;;19.40;79.70;;;;;;5115190;28;20031;-73
2022/10/10 04:17:26;;;;;;;3.38;1.13;;;19.40;79.70;;;;;;5097206;28;20102;-72
2022/10/10 04:19:52;;;;;;;5.25;1.10;;;19.40;79.70;;;;;;5115416;28;20020;-72
2022/10/10 04:22:18;;;;;;;5.60;1.20;;;19.40;79.80;;;;;;5114180;28;20032;-73
2022/10/10 04:24:44;;;;;;;2.22;1.40;;;19.40;79.80;;;;;;5115226;28;20351;-73
2022/10/10 04:27:10;;;;;;;4.13;1.20;;;19.40;79.90;;;;;;5115021;28;20374;-72
2022/10/10 04:29:35;;;;;;;1.23;1.13;;;19.40;79.80;;;;;;5115182;28;20023;-73
2022/10/10 04:32:01;;;;;;;5.50;1.33;;;19.40;79.60;;;;;;5113774;28;20035;-73
2022/10/10 04:34:27;;;;;;;13.82;1.90;;;19.40;79.70;;;;;;5115178;28;20028;-73
2022/10/10 04:36:52;;;;;;;5.45;1.40;;;19.40;79.80;;;;;;5115106;28;20546;-73
2022/10/10 04:39:18;;;;;;;6.03;1.63;;;19.40;79.90;;;;;;5113865;28;20064;-73
2022/10/10 04:41:48;;;;;;;7.00;1.17;;;19.40;80.00;;;;;;5113319;28;20119;-73
2022/10/10 04:44:14;;;;;;;4.07;1.80;;;19.40;80.30;;;;;;5113768;28;20020;-72
2022/10/10 04:46:40;;;;;;;7.25;1.52;;;19.40;80.00;;;;;;5114532;28;20038;-73
2022/10/10 04:49:06;;;;;;;4.05;2.13;;;19.40;80.00;;;;;;5114542;28;20016;-73
2022/10/10 04:51:31;;;;;;;5.10;1.40;;;19.40;80.00;;;;;;5114931;28;20035;-72
2022/10/10 04:53:57;;;;;;;5.05;1.70;;;19.40;80.00;;;;;;5114280;28;20136;-72
2022/10/10 04:56:24;;;;;;;4.55;1.70;;;19.40;80.00;;;;;;5114692;28;20051;-73
2022/10/10 04:58:50;;;;;;;3.03;1.50;;;19.40;79.90;;;;;;5113306;28;20051;-73
2022/10/10 05:01:15;;;;;;;6.03;1.60;;;19.40;80.00;;;;;;5107943;28;20078;-73
2022/10/10 05:03:41;;;;;;;6.20;2.05;;;19.40;80.00;;;;;;5093895;28;20538;-73
2022/10/10 05:06:07;;;;;;;2.72;1.25;;;19.40;79.80;;;;;;5094259;28;20022;-73
2022/10/10 05:08:33;;;;;;;2.88;1.38;;;19.40;79.90;;;;;;5100532;28;20023;-72
2022/10/10 05:10:59;;;;;;;5.55;1.58;;;19.40;79.90;;;;;;5095986;28;20036;-73
2022/10/10 05:13:24;;;;;;;8.27;2.08;;;19.40;80.00;;;;;;5114313;28;20042;-73
2022/10/10 05:15:51;;;;;;;6.22;1.77;;;19.40;80.10;;;;;;5114010;28;20396;-73
2022/10/10 05:18:17;;;;;;;5.90;2.10;;;19.40;80.00;;;;;;5095954;28;20047;-73
2022/10/10 05:20:46;;;;;;;3.28;1.45;;;19.40;80.10;;;;;;5112969;28;20385;-73
2022/10/10 05:23:15;;;;;;;4.57;1.55;;;19.40;80.10;;;;;;5114079;28;20020;-73
2022/10/10 05:25:44;;;;;;;4.47;1.45;;;19.40;80.00;;;;;;5114159;28;20019;-73
2022/10/10 05:28:10;;;;;;;3.65;1.45;;;19.40;80.10;;;;;;5114160;28;20016;-73
2022/10/10 05:30:36;;;;;;;4.10;1.92;;;19.40;80.20;;;;;;5098521;28;20054;-72
2022/10/10 05:33:01;;;;;;;5.97;2.13;;;19.40;80.10;;;;;;5093400;28;20490;-73
2022/10/10 05:35:27;;;;;;;2.33;1.52;;;19.40;80.10;;;;;;5093831;28;20032;-73
2022/10/10 05:37:52;;;;;;;4.68;1.83;;;19.40;80.10;;;;;;5093601;28;20027;-73
2022/10/10 05:40:18;;;;;;;3.03;1.30;;;19.40;80.20;;;;;;5093898;28;20039;-73
2022/10/10 05:42:44;;;;;;;4.53;1.58;;;19.30;80.20;;;;;;5093648;28;20374;-73
2022/10/10 05:45:09;;;;;;;4.70;1.60;;;19.40;80.20;;;;;;5093335;28;20027;-73
2022/10/10 05:47:35;;;;;;;4.72;1.70;;;19.40;80.20;;;;;;5093232;28;20030;-73
2022/10/10 05:50:01;;;;;;;5.72;1.60;;;19.40;80.20;;;;;;5093713;28;20028;-73
2022/10/10 05:52:27;;;;;;;4.28;1.60;;;19.30;80.10;;;;;;5093392;28;20101;-73
2022/10/10 05:54:53;;;;;;;3.22;1.50;;;19.30;80.20;;;;;;5092167;28;20085;-73
2022/10/10 05:57:18;;;;;;;3.42;1.60;;;19.40;80.20;;;;;;5093558;28;20028;-73
2022/10/10 05:59:44;;;;;;;5.05;1.67;;;19.40;80.30;;;;;;5091737;28;20421;-73
2022/10/10 06:02:12;;;;;;;3.42;1.70;;;19.30;80.20;;;;;;5093299;28;20033;-72
2022/10/10 06:04:37;;;;;;;7.75;1.70;;;19.40;80.30;;;;;;5093588;28;20028;-72
2022/10/10 06:07:03;;;;;;;6.57;2.05;;;19.30;80.00;;;;;;5084902;28;20080;-72
2022/10/10 06:09:29;;;;;;;9.32;1.70;;;19.30;79.30;;;;;;5081335;28;20089;-73
2022/10/10 06:11:54;;;;;;;4.63;1.50;;;19.30;78.50;;;;;;5091654;28;20401;-72
2022/10/10 06:14:20;;;;;;;2.15;1.50;;;19.30;78.20;;;;;;5092640;28;20030;-72
2022/10/10 06:16:46;;;;;;;3.30;1.63;;;19.30;77.70;;;;;;5091657;28;20500;-72
2022/10/10 06:19:11;;;;;;;8.50;2.30;;;19.20;77.40;;;;;;5091371;28;20107;-72
2022/10/10 06:21:37;;;;;;;3.17;1.63;;;19.20;77.40;;;;;;5092672;28;20059;-72
2022/10/10 06:24:02;;;;;;;4.80;1.83;;;19.20;77.50;;;;;;5092477;28;20402;-72
2022/10/10 06:26:28;;;;;;;5.75;1.42;;;19.20;77.50;;;;;;5092724;28;20364;-73
2022/10/10 06:28:54;;;;;;;5.05;2.08;;;19.20;77.50;;;;;;5092454;28;20035;-72
2022/10/10 06:31:19;;;;;;;10.45;2.38;;;19.20;77.70;;;;;;5091319;28;20077;-72
2022/10/10 06:33:46;;;;;;;7.57;2.22;;;19.20;77.60;;;;;;5074571;28;20020;-72
2022/10/10 06:36:12;;;;;;;12.27;3.40;;;19.20;77.50;;;;;;5091360;28;20048;-72
2022/10/10 06:38:39;;;;;;;27.27;4.22;;;19.20;77.70;;;;;;5092269;28;20120;-72
2022/10/10 06:41:05;;;;;;;13.90;3.33;;;19.20;77.80;;;;;;5091098;28;20111;-72
2022/10/10 06:43:31;;;;;;;15.40;3.67;;;19.20;77.90;;;;;;5092320;28;20052;-72
2022/10/10 06:45:57;;;;;;;18.52;4.22;;;19.20;78.00;;;;;;5094687;28;20023;-72
2022/10/10 06:48:22;;;;;;;20.40;3.67;;;19.20;78.00;;;;;;5109351;28;20020;-72
2022/10/10 06:51:03;;;;;;;18.35;4.13;;;19.10;78.00;;;;;;5091205;28;20020;-72
2022/10/10 06:53:29;;;;;;;18.65;4.07;;;19.10;78.00;;;;;;5099565;28;20088;-72
2022/10/10 06:55:55;;;;;;;14.50;3.60;;;19.10;78.00;;;;;;5111389;28;20035;-72
2022/10/10 06:58:22;;;;;;;20.13;4.22;;;19.10;78.10;;;;;;5112573;28;20032;-73
2022/10/10 07:00:49;;;;;;;18.02;4.50;;;19.10;78.10;;;;;;5095216;28;20161;-72
2022/10/10 07:03:14;;;;;;;18.52;4.38;;;19.10;78.20;;;;;;5113841;28;20051;-72
2022/10/10 07:05:40;;;;;;;18.05;3.65;;;19.10;78.20;;;;;;5116717;28;20054;-72
2022/10/10 07:08:08;;;;;;;20.63;3.85;;;19.10;78.20;;;;;;5115630;28;20059;-72
2022/10/10 07:10:33;;;;;;;14.32;4.05;;;19.10;78.20;;;;;;5115518;28;20020;-72
2022/10/10 07:12:59;;;;;;;23.40;4.30;;;19.10;78.20;;;;;;5115260;28;20106;-72
2022/10/10 07:15:24;;;;;;;17.02;3.58;;;19.10;78.20;;;;;;5116453;28;20022;-72
2022/10/10 07:17:56;;;;;;;14.88;3.45;;;19.10;78.20;;;;;;5116452;28;20039;-72
2022/10/10 07:20:22;;;;;;;16.92;4.20;;;19.10;78.20;;;;;;5098190;28;20024;-73
2022/10/10 07:22:48;;;;;;;17.50;3.85;;;19.10;78.20;;;;;;5095923;28;20115;-72
2022/10/10 07:25:13;;;;;;;22.25;4.32;;;19.00;78.10;;;;;;5095989;28;20153;-72
2022/10/10 07:27:39;;;;;;;19.45;4.50;;;19.00;78.10;;;;;;5095758;28;20024;-72
2022/10/10 07:30:05;;;;;;;19.98;3.47;;;19.00;78.10;;;;;;5094660;28;20028;-72
2022/10/10 07:32:30;;;;;;;11.02;3.80;;;19.00;78.10;;;;;;5095811;28;20035;-72
2022/10/10 07:34:57;;;;;;;15.43;4.32;;;19.00;78.10;;;;;;5095746;28;20028;-72
2022/10/10 07:37:23;;;;;;;13.82;3.92;;;19.00;78.10;;;;;;5095762;28;20111;-72
2022/10/10 07:39:51;;;;;;;15.43;4.35;;;19.00;78.10;;;;;;5095795;28;20385;-72
2022/10/10 07:42:17;;;;;;;17.98;4.57;;;19.00;78.10;;;;;;5094148;28;20050;-72
2022/10/10 07:44:43;;;;;;;16.38;3.70;;;19.00;78.10;;;;;;5095726;28;20020;-72
2022/10/10 07:47:08;;;;;;;17.05;4.57;;;19.00;78.10;;;;;;5094001;28;20077;-72
2022/10/10 07:49:34;;;;;;;14.80;4.03;;;19.00;78.10;;;;;;5094434;28;20438;-72
2022/10/10 07:52:00;;;;;;;17.95;4.30;;;19.00;78.10;;;;;;5093893;28;20526;-72
2022/10/10 07:54:25;;;;;;;17.67;4.35;;;19.00;78.10;;;;;;5111535;28;20047;-72
2022/10/10 07:56:51;;;;;;;14.15;3.67;;;19.00;78.10;;;;;;5114566;28;20106;-72
2022/10/10 07:59:16;;;;;;;17.42;4.00;;;19.00;78.10;;;;;;5114664;28;20016;-72
2022/10/10 08:01:42;;;;;;;14.27;4.28;;;19.00;78.10;;;;;;5114364;28;20024;-72
2022/10/10 08:04:08;;;;;;;14.13;3.95;;;19.00;78.10;;;;;;5114331;28;20024;-72
2022/10/10 08:06:33;;;;;;;13.95;4.07;;;19.00;78.10;;;;;;5113179;28;20051;-72
2022/10/10 08:08:59;;;;;;;18.15;4.25;;;19.00;78.10;;;;;;5114468;28;20545;-72
2022/10/10 08:11:24;;;;;;;14.57;4.03;;;18.90;78.10;;;;;;5113694;28;20504;-72
2022/10/10 08:13:50;;;;;;;15.38;3.97;;;18.90;78.00;;;;;;5096098;28;20119;-72
2022/10/10 08:16:16;;;;;;;21.98;4.63;;;18.90;78.00;;;;;;5096053;28;20114;-72
2022/10/10 08:18:42;;;;;;;13.70;3.97;;;18.90;78.00;;;;;;5096212;28;20015;-72
2022/10/10 08:21:09;;;;;;;12.77;4.10;;;18.90;78.00;;;;;;5112934;28;20102;-72
2022/10/10 08:23:35;;;;;;;9.77;4.00;;;18.90;78.00;;;;;;5113125;28;20047;-73
2022/10/10 08:26:02;;;;;;;15.10;4.43;;;18.90;78.00;;;;;;5113646;28;20469;-72
2022/10/10 08:28:28;;;;;;;14.35;3.97;;;18.90;78.00;;;;;;5114167;28;20026;-72
2022/10/10 08:30:54;;;;;;;11.63;3.63;;;18.90;78.00;;;;;;5112878;28;20049;-72
2022/10/10 08:33:19;;;;;;;13.90;4.13;;;18.90;77.90;;;;;;5113867;28;20026;-72
2022/10/10 08:35:45;;;;;;;16.38;4.45;;;18.90;78.00;;;;;;5113882;28;20030;-72
2022/10/10 08:38:11;;;;;;;10.55;3.50;;;18.90;78.00;;;;;;5113905;28;20020;-72
2022/10/10 08:40:45;;;;;;;14.20;4.18;;;18.90;78.00;;;;;;5113609;28;20054;-72
2022/10/10 08:43:34;;;;;;;16.90;4.15;;;18.90;78.00;;;;;;5095593;28;20027;-72
2022/10/10 08:46:17;;;;;;;10.75;3.90;;;18.90;78.00;;;;;;5093646;28;20486;-72
2022/10/10 08:48:43;;;;;;;;;;;18.90;77.90;;;;;;5076754;28;20060;-72
2022/10/10 08:51:10;;;;;;;13.95;3.70;;;18.90;77.90;;;;;;5092162;28;19944;-72
2022/10/10 08:53:45;;;;;;;12.45;3.50;;;18.90;78.00;;;;;;5059806;28;1224716;-72
2022/10/10 08:56:16;;;;;;;10.43;3.47;;;18.90;78.00;;;;;;5114659;28;20043;-72
2022/10/10 08:58:44;;;;;;;10.00;3.40;;;18.90;78.00;;;;;;5096759;28;20034;-73
2022/10/10 09:01:19;;;;;;;12.00;4.13;;;18.90;78.00;;;;;;5096541;28;20529;-72
2022/10/10 09:03:46;;;;;;;10.88;3.35;;;18.90;78.00;;;;;;5113360;28;20031;-72
2022/10/10 09:06:33;;;;;;;12.80;3.88;;;18.90;78.00;;;;;;5114374;28;20088;-72
2022/10/10 09:09:23;;;;;;;11.95;4.00;;;18.90;78.00;;;;;;5114342;28;20098;-72
2022/10/10 09:11:52;;;;;;;11.25;3.60;;;18.80;77.90;;;;;;5114411;28;20030;-72
2022/10/10 09:14:17;;;;;;;12.85;4.15;;;18.90;78.00;;;;;;5114289;28;20077;-73
2022/10/10 09:17:02;;;;;;;11.88;3.85;;;18.80;78.00;;;;;;5114190;28;20451;-72
2022/10/10 09:19:36;;;;;;;10.00;3.20;;;18.80;77.90;;;;;;5096571;28;20028;-72
2022/10/10 09:22:04;;;;;;;11.23;3.33;;;18.80;77.90;;;;;;5111979;28;20026;-72
2022/10/10 09:24:45;;;;;;;10.10;3.47;;;18.80;77.90;;;;;;5096084;28;20030;-72
2022/10/10 09:27:16;;;;;;;11.63;3.30;;;18.80;77.90;;;;;;5097321;28;20030;-73
2022/10/10 09:30:00;;;;;;;9.30;3.70;;;18.80;77.90;;;;;;5112690;28;20065;-72
2022/10/10 09:32:43;;;;;;;9.93;3.50;;;18.80;77.90;;;;;;5113818;28;20049;-72
2022/10/10 09:35:25;;;;;;;10.35;3.78;;;18.80;77.80;;;;;;5112931;28;20028;-72
2022/10/10 09:38:15;;;;;;;12.17;3.40;;;18.80;77.90;;;;;;5112546;28;20087;-72
2022/10/10 09:41:00;;;;;;;13.27;3.38;;;18.80;77.80;;;;;;5112543;28;20127;-72
2022/10/10 09:43:29;;;;;;;13.43;3.67;;;18.80;77.90;;;;;;5096126;28;20420;-72
2022/10/10 09:45:55;;;;;;;10.45;3.55;;;18.80;77.80;;;;;;5108179;28;20497;-73
2022/10/10 09:48:23;;;;;;;10.88;3.63;;;18.70;77.80;;;;;;5092291;28;20050;-72
2022/10/10 09:50:49;;;;;;;9.38;3.40;;;18.70;77.80;;;;;;5075523;28;20013;-72
2022/10/10 09:53:15;;;;;;;11.65;3.60;;;18.70;77.80;;;;;;5098860;28;20054;-73
2022/10/10 09:55:40;;;;;;;8.05;3.22;;;18.70;77.80;;;;;;5095526;28;20434;-72
2022/10/10 09:58:19;;;;;;;9.00;3.40;;;18.70;77.80;;;;;;5112578;28;20153;-72
2022/10/10 10:00:44;;;;;;;8.52;3.53;;;18.70;77.80;;;;;;5112537;28;20027;-72
2022/10/10 10:03:11;;;;;;;9.90;3.10;;;18.80;77.90;;;;;;5112012;28;20024;-72
2022/10/10 10:05:38;;;;;;;10.70;3.97;;;18.80;77.90;;;;;;5111856;28;20097;-72
2022/10/10 10:08:03;;;;;;;10.82;3.42;;;18.70;77.80;;;;;;5078382;28;20442;-72
2022/10/10 10:10:29;;;;;;;6.60;2.63;;;18.80;77.90;;;;;;5111912;28;20102;-72
2022/10/10 10:12:55;;;;;;;9.80;3.00;;;18.80;77.90;;;;;;5095092;28;20039;-72
2022/10/10 10:15:25;;;;;;;8.77;2.78;;;18.80;77.90;;;;;;5113178;28;20023;-72
2022/10/10 10:18:29;;;;;;;8.68;3.15;;;18.70;77.80;;;;;;5095503;28;20032;-72
2022/10/10 10:21:07;;;;;;;9.20;3.35;;;18.70;77.80;;;;;;5033817;28;20033;-72
2022/10/10 10:23:36;;;;;;;16.42;3.35;;;18.70;77.80;;;;;;5050210;28;20032;-72
2022/10/10 10:26:03;;;;;;;8.73;2.78;;;18.70;77.80;;;;;;5034170;28;20071;-72
2022/10/10 10:28:29;;;;;;;7.07;3.25;;;18.70;77.80;;;;;;5033634;28;20028;-72
2022/10/10 10:30:56;;;;;;;7.70;2.80;;;18.70;77.80;;;;;;5033672;28;20040;-72
2022/10/10 10:33:36;;;;;;;10.07;2.97;;;18.70;77.80;;;;;;5033420;28;20029;-73
2022/10/10 10:36:10;;;;;;;9.55;2.92;;;18.70;77.80;;;;;;5033535;28;20100;-72
2022/10/10 10:38:54;;;;;;;8.05;2.90;;;18.70;77.80;;;;;;5049926;28;20132;-72
2022/10/10 10:41:28;;;;;;;8.88;2.83;;;18.70;77.80;;;;;;5033507;28;20072;-72
2022/10/10 10:44:05;;;;;;;10.88;3.35;;;18.70;77.80;;;;;;5033638;28;20047;-72
2022/10/10 10:46:44;;;;;;;11.30;3.28;;;18.70;77.80;;;;;;5040802;28;20036;-72
2022/10/10 10:49:19;;;;;;;7.63;2.88;;;18.70;77.80;;;;;;5029971;28;20025;-72
2022/10/10 10:52:03;;;;;;;8.25;2.72;;;18.70;77.80;;;;;;5054271;28;20057;-73
2022/10/10 10:54:51;;;;;;;7.45;2.75;;;18.70;77.80;;;;;;5110186;28;20031;-72
2022/10/10 10:57:31;;;;;;;8.77;2.88;;;18.70;77.80;;;;;;5111562;28;20024;-72
2022/10/10 11:00:11;;;;;;;9.52;2.97;;;18.70;77.80;;;;;;5112574;28;20028;-72
2022/10/10 11:03:07;;;;;;;7.63;2.50;;;18.70;77.80;;;;;;5111414;28;20042;-72
2022/10/10 11:05:48;;;;;;;8.05;2.55;;;18.60;77.70;;;;;;5112450;28;20474;-73
2022/10/10 11:08:24;;;;;;;8.23;2.40;;;18.70;77.80;;;;;;5111484;28;20046;-72
2022/10/10 11:10:55;;;;;;;9.27;2.55;;;18.60;77.70;;;;;;5112720;28;20023;-72
2022/10/10 11:13:50;;;;;;;5.00;2.20;;;18.70;78.90;;;;;;5112391;28;20028;-72
2022/10/10 11:16:28;;;;;;;7.47;2.92;;;18.60;77.70;;;;;;5111496;28;20058;-72
2022/10/10 11:19:10;;;;;;;7.28;2.60;;;18.60;77.70;;;;;;5111125;28;20027;-72
2022/10/10 11:21:55;;;;;;;6.35;2.53;;;18.60;77.70;;;;;;5111368;28;20024;-72
2022/10/10 11:24:34;;;;;;;8.70;2.58;;;18.60;77.70;;;;;;5111211;28;20043;-72
2022/10/10 11:27:01;;;;;;;6.28;2.20;;;18.60;77.70;;;;;;5095283;28;20119;-72
2022/10/10 11:29:28;;;;;;;6.63;2.75;;;18.60;77.70;;;;;;5094388;28;20016;-72
2022/10/10 11:32:18;;;;;;;8.88;2.78;;;18.60;77.70;;;;;;5094541;28;20074;-72
2022/10/10 11:34:57;;;;;;;7.28;2.50;;;18.60;77.70;;;;;;5100647;28;20063;-72
2022/10/10 11:37:26;;;;;;;6.55;2.70;;;18.60;77.70;;;;;;5095691;28;20034;-72
2022/10/10 11:39:56;;;;;;;7.10;2.75;;;18.60;77.70;;;;;;5111206;28;20073;-72
2022/10/10 11:42:56;;;;;;;5.28;2.22;;;18.60;77.70;;;;;;5111001;28;20474;-72
2022/10/10 11:45:24;;;;;;;5.70;2.47;;;18.60;77.70;;;;;;5050787;28;20033;-72
2022/10/10 11:47:59;;;;;;;7.28;2.67;;;18.60;77.70;;;;;;4996884;28;20152;-72
2022/10/10 11:50:30;;;;;;;7.97;2.50;;;18.60;77.70;;;;;;4997913;28;20077;-72
2022/10/10 11:53:12;;;;;;;6.55;2.33;;;18.60;77.70;;;;;;5006417;28;20053;-72
2022/10/10 11:55:42;;;;;;;7.03;2.38;;;18.60;77.70;;;;;;5036613;28;20033;-72
2022/10/10 11:58:08;;;;;;;7.40;2.85;;;18.60;77.70;;;;;;5037083;28;20080;-72
2022/10/10 12:00:39;;;;;;;7.28;2.85;;;18.60;77.70;;;;;;5052982;28;20525;-72
2022/10/10 12:03:06;;;;;;;5.33;2.60;;;18.60;77.70;;;;;;5036084;28;20056;-72
2022/10/10 12:05:37;;;;;;;6.97;2.72;;;18.60;77.70;;;;;;5036289;28;20033;-73
2022/10/10 12:08:19;;;;;;;5.70;2.40;;;18.60;77.70;;;;;;5036889;28;20029;-73
2022/10/10 12:10:51;;;;;;;5.55;2.63;;;18.60;77.70;;;;;;5036319;28;20162;-72
2022/10/10 12:13:27;;;;;;;5.72;2.40;;;18.60;77.70;;;;;;5036193;28;20040;-72
2022/10/10 12:15:54;;;;;;;7.40;2.88;;;18.60;77.70;;;;;;5036010;28;20037;-73
2022/10/10 12:18:39;;;;;;;5.30;2.10;;;18.60;77.70;;;;;;5036108;28;20048;-72
2022/10/10 12:21:06;;;;;;;6.80;2.22;;;18.60;77.80;;;;;;5078342;28;20050;-72
2022/10/10 12:23:32;;;;;;;5.28;2.25;;;18.60;77.70;;;;;;5114108;28;20362;-72
2022/10/10 12:25:58;;;;;;;6.78;2.30;;;18.60;77.70;;;;;;5097240;28;20027;-72
2022/10/10 12:28:24;;;;;;;7.40;2.50;;;18.50;77.70;;;;;;5097135;28;20023;-72
2022/10/10 12:30:56;;;;;;;5.90;2.80;;;18.60;77.70;;;;;;5115017;28;20016;-72
2022/10/10 12:33:24;;;;;;;7.35;2.50;;;18.50;77.70;;;;;;5115276;28;20020;-72
2022/10/10 12:35:50;;;;;;;8.20;2.47;;;18.50;77.70;;;;;;5115158;28;20028;-72
2022/10/10 12:38:20;;;;;;;3.50;2.03;;;18.50;77.70;;;;;;5115199;28;20580;-72
2022/10/10 12:41:05;;;;;;;6.35;2.13;;;18.50;77.70;;;;;;5113784;28;20023;-72
2022/10/10 12:43:41;;;;;;;5.22;2.38;;;18.50;77.60;;;;;;5114977;28;20032;-72
2022/10/10 12:46:37;;;;;;;6.28;2.53;;;18.50;77.70;;;;;;5108960;28;20020;-72
2022/10/10 12:49:17;;;;;;;5.28;2.40;;;18.50;77.70;;;;;;5080277;28;20563;-72
2022/10/10 12:51:43;;;;;;;5.50;2.35;;;18.50;77.70;;;;;;5076856;28;20027;-73
2022/10/10 12:54:26;;;;;;;4.85;1.98;;;18.50;77.70;;;;;;5108409;28;20031;-72
2022/10/10 12:57:06;;;;;;;;;;;18.50;77.70;;;;;;5097018;28;20016;-72
2022/10/10 12:59:31;;;;;;;6.68;2.45;;;18.50;77.70;;;;;;5114564;28;19907;-72
2022/10/10 13:02:00;;;;;;;4.93;2.33;;;18.50;77.70;;;;;;5096499;28;20424;-72